sensor_id;sensor_type;location;lat;lon;timestamp;P1;durP1;ratioP1;P2;durP2;ratioP2
33254;SDS011;19623;52.482;9.762;2022-10-13T00:00:41;89.15;;;81.35;;
33254;SDS011;19623;52.482;9.762;2022-10-13T00:03:08;94.28;;;86.40;;
33254;SDS011;19623;52.482;9.762;2022-10-13T00:05:34;94.93;;;87.05;;
33254;SDS011;19623;52.482;9.762;2022-10-13T00:08:08;104.70;;;96.05;;
33254;SDS011;19623;52.482;9.762;2022-10-13T00:10:36;108.95;;;99.28;;
33254;SDS011;19623;52.482;9.762;2022-10-13T00:13:03;104.80;;;95.97;;
33254;SDS011;19623;52.482;9.762;2022-10-13T00:15:29;109.13;;;100.07;;
33254;SDS011;19623;52.482;9.762;2022-10-13T00:17:55;108.18;;;98.95;;
33254;SDS011;19623;52.482;9.762;2022-10-13T00:20:21;115.35;;;105.22;;
33254;SDS011;19623;52.482;9.762;2022-10-13T00:22:46;120.47;;;110.07;;
33254;SDS011;19623;52.482;9.762;2022-10-13T00:25:12;116.35;;;105.80;;
33254;SDS011;19623;52.482;9.762;2022-10-13T00:27:37;113.70;;;104.40;;
33254;SDS011;19623;52.482;9.762;2022-10-13T00:30:03;110.35;;;101.07;;
33254;SDS011;19623;52.482;9.762;2022-10-13T00:32:30;101.43;;;92.85;;
33254;SDS011;19623;52.482;9.762;2022-10-13T00:34:55;103.88;;;95.20;;
33254;SDS011;19623;52.482;9.762;2022-10-13T00:37:21;117.45;;;107.40;;
33254;SDS011;19623;52.482;9.762;2022-10-13T00:39:48;114.90;;;104.53;;
33254;SDS011;19623;52.482;9.762;2022-10-13T00:42:13;103.75;;;94.93;;
33254;SDS011;19623;52.482;9.762;2022-10-13T00:47:44;106.88;;;97.60;;
33254;SDS011;19623;52.482;9.762;2022-10-13T00:50:15;115.70;;;106.03;;
33254;SDS011;19623;52.482;9.762;2022-10-13T00:52:44;101.72;;;93.40;;
33254;SDS011;19623;52.482;9.762;2022-10-13T00:55:12;119.03;;;108.40;;
33254;SDS011;19623;52.482;9.762;2022-10-13T00:57:42;90.97;;;83.87;;
33254;SDS011;19623;52.482;9.762;2022-10-13T01:00:10;109.05;;;99.65;;
33254;SDS011;19623;52.482;9.762;2022-10-13T01:02:37;119.18;;;108.40;;
33254;SDS011;19623;52.482;9.762;2022-10-13T01:05:03;125.88;;;114.65;;
33254;SDS011;19623;52.482;9.762;2022-10-13T01:07:31;125.47;;;114.05;;
33254;SDS011;19623;52.482;9.762;2022-10-13T01:09:58;134.88;;;122.78;;
33254;SDS011;19623;52.482;9.762;2022-10-13T01:12:47;113.93;;;104.20;;
33254;SDS011;19623;52.482;9.762;2022-10-13T01:15:27;119.40;;;109.18;;
33254;SDS011;19623;52.482;9.762;2022-10-13T01:31:32;115.65;;;105.93;;
33254;SDS011;19623;52.482;9.762;2022-10-13T01:34:20;121.90;;;111.38;;
33254;SDS011;19623;52.482;9.762;2022-10-13T01:39:45;107.35;;;98.70;;
33254;SDS011;19623;52.482;9.762;2022-10-13T01:42:20;103.43;;;95.05;;
33254;SDS011;19623;52.482;9.762;2022-10-13T01:44:52;118.93;;;108.88;;
33254;SDS011;19623;52.482;9.762;2022-10-13T01:47:24;105.22;;;96.40;;
33254;SDS011;19623;52.482;9.762;2022-10-13T01:49:51;111.75;;;102.75;;
33254;SDS011;19623;52.482;9.762;2022-10-13T01:52:19;106.03;;;97.30;;
33254;SDS011;19623;52.482;9.762;2022-10-13T01:54:52;101.27;;;93.27;;
33254;SDS011;19623;52.482;9.762;2022-10-13T01:57:52;103.55;;;94.78;;
33254;SDS011;19623;52.482;9.762;2022-10-13T02:00:12;106.13;;;97.25;;
33254;SDS011;19623;52.482;9.762;2022-10-13T02:02:55;106.97;;;97.97;;
33254;SDS011;19623;52.482;9.762;2022-10-13T02:08:24;100.70;;;92.50;;
33254;SDS011;19623;52.482;9.762;2022-10-13T02:10:59;107.82;;;98.53;;
33254;SDS011;19623;52.482;9.762;2022-10-13T02:13:41;104.90;;;95.90;;
33254;SDS011;19623;52.482;9.762;2022-10-13T02:16:14;81.43;;;74.85;;
33254;SDS011;19623;52.482;9.762;2022-10-13T02:18:40;97.68;;;89.60;;
33254;SDS011;19623;52.482;9.762;2022-10-13T02:21:06;89.57;;;82.15;;
33254;SDS011;19623;52.482;9.762;2022-10-13T02:23:33;86.05;;;78.97;;
33254;SDS011;19623;52.482;9.762;2022-10-13T02:25:59;84.30;;;77.57;;
33254;SDS011;19623;52.482;9.762;2022-10-13T02:28:25;91.10;;;83.85;;
33254;SDS011;19623;52.482;9.762;2022-10-13T02:30:53;89.10;;;81.82;;
33254;SDS011;19623;52.482;9.762;2022-10-13T02:33:18;107.40;;;98.00;;
33254;SDS011;19623;52.482;9.762;2022-10-13T02:35:44;98.32;;;90.05;;
33254;SDS011;19623;52.482;9.762;2022-10-13T02:38:10;90.90;;;82.63;;
33254;SDS011;19623;52.482;9.762;2022-10-13T02:40:36;96.68;;;88.63;;
33254;SDS011;19623;52.482;9.762;2022-10-13T02:43:02;88.95;;;81.60;;
33254;SDS011;19623;52.482;9.762;2022-10-13T02:45:28;96.63;;;88.15;;
33254;SDS011;19623;52.482;9.762;2022-10-13T02:47:55;73.72;;;67.32;;
33254;SDS011;19623;52.482;9.762;2022-10-13T02:50:21;79.82;;;73.43;;
33254;SDS011;19623;52.482;9.762;2022-10-13T02:52:47;74.70;;;68.53;;
33254;SDS011;19623;52.482;9.762;2022-10-13T02:55:13;71.18;;;64.70;;
33254;SDS011;19623;52.482;9.762;2022-10-13T02:57:38;91.78;;;83.75;;
33254;SDS011;19623;52.482;9.762;2022-10-13T03:00:04;88.40;;;81.15;;
33254;SDS011;19623;52.482;9.762;2022-10-13T03:02:31;86.15;;;79.13;;
33254;SDS011;19623;52.482;9.762;2022-10-13T03:04:56;82.05;;;75.07;;
33254;SDS011;19623;52.482;9.762;2022-10-13T03:07:22;71.65;;;66.05;;
33254;SDS011;19623;52.482;9.762;2022-10-13T03:09:48;88.63;;;81.13;;
33254;SDS011;19623;52.482;9.762;2022-10-13T03:12:14;99.20;;;89.97;;
33254;SDS011;19623;52.482;9.762;2022-10-13T03:14:39;100.72;;;92.35;;
33254;SDS011;19623;52.482;9.762;2022-10-13T03:17:05;91.63;;;83.95;;
33254;SDS011;19623;52.482;9.762;2022-10-13T03:19:31;90.35;;;82.95;;
33254;SDS011;19623;52.482;9.762;2022-10-13T03:21:57;87.13;;;79.55;;
33254;SDS011;19623;52.482;9.762;2022-10-13T03:24:23;86.90;;;79.63;;
33254;SDS011;19623;52.482;9.762;2022-10-13T03:26:49;97.30;;;89.13;;
33254;SDS011;19623;52.482;9.762;2022-10-13T03:29:15;89.13;;;81.55;;
33254;SDS011;19623;52.482;9.762;2022-10-13T03:31:42;57.90;;;52.70;;
33254;SDS011;19623;52.482;9.762;2022-10-13T03:34:08;45.95;;;41.72;;
33254;SDS011;19623;52.482;9.762;2022-10-13T03:36:35;60.58;;;55.63;;
33254;SDS011;19623;52.482;9.762;2022-10-13T03:39:01;51.35;;;46.53;;
33254;SDS011;19623;52.482;9.762;2022-10-13T03:41:27;53.72;;;48.65;;
33254;SDS011;19623;52.482;9.762;2022-10-13T03:43:53;47.85;;;43.72;;
33254;SDS011;19623;52.482;9.762;2022-10-13T03:46:19;53.65;;;49.25;;
33254;SDS011;19623;52.482;9.762;2022-10-13T03:48:45;48.65;;;44.38;;
33254;SDS011;19623;52.482;9.762;2022-10-13T03:51:13;47.20;;;43.35;;
33254;SDS011;19623;52.482;9.762;2022-10-13T03:53:40;48.30;;;44.33;;
33254;SDS011;19623;52.482;9.762;2022-10-13T03:56:06;46.92;;;43.05;;
33254;SDS011;19623;52.482;9.762;2022-10-13T03:58:32;54.25;;;49.72;;
33254;SDS011;19623;52.482;9.762;2022-10-13T04:01:02;51.83;;;47.58;;
33254;SDS011;19623;52.482;9.762;2022-10-13T04:03:30;61.22;;;56.30;;
33254;SDS011;19623;52.482;9.762;2022-10-13T04:06:00;66.45;;;60.80;;
33254;SDS011;19623;52.482;9.762;2022-10-13T04:08:28;57.80;;;53.17;;
33254;SDS011;19623;52.482;9.762;2022-10-13T04:11:13;69.18;;;63.17;;
33254;SDS011;19623;52.482;9.762;2022-10-13T04:13:40;67.93;;;62.38;;
33254;SDS011;19623;52.482;9.762;2022-10-13T04:16:07;65.63;;;60.05;;
33254;SDS011;19623;52.482;9.762;2022-10-13T04:18:36;53.25;;;49.05;;
33254;SDS011;19623;52.482;9.762;2022-10-13T04:21:06;53.28;;;48.85;;
33254;SDS011;19623;52.482;9.762;2022-10-13T04:23:37;55.97;;;51.22;;
33254;SDS011;19623;52.482;9.762;2022-10-13T04:26:04;45.25;;;41.28;;
33254;SDS011;19623;52.482;9.762;2022-10-13T04:28:31;22.48;;;20.25;;
33254;SDS011;19623;52.482;9.762;2022-10-13T04:30:59;23.40;;;18.25;;
33254;SDS011;19623;52.482;9.762;2022-10-13T04:33:26;30.70;;;22.55;;
33254;SDS011;19623;52.482;9.762;2022-10-13T04:35:52;27.70;;;23.48;;
33254;SDS011;19623;52.482;9.762;2022-10-13T04:38:18;31.23;;;23.65;;
33254;SDS011;19623;52.482;9.762;2022-10-13T04:40:44;29.70;;;23.42;;
33254;SDS011;19623;52.482;9.762;2022-10-13T04:43:09;20.92;;;18.75;;
33254;SDS011;19623;52.482;9.762;2022-10-13T04:45:35;22.42;;;19.83;;
33254;SDS011;19623;52.482;9.762;2022-10-13T04:48:01;25.52;;;22.25;;
33254;SDS011;19623;52.482;9.762;2022-10-13T04:50:27;29.27;;;24.42;;
33254;SDS011;19623;52.482;9.762;2022-10-13T04:52:53;25.98;;;22.63;;
33254;SDS011;19623;52.482;9.762;2022-10-13T04:55:18;26.13;;;23.20;;
33254;SDS011;19623;52.482;9.762;2022-10-13T04:57:44;28.40;;;21.02;;
33254;SDS011;19623;52.482;9.762;2022-10-13T05:00:10;22.77;;;18.17;;
33254;SDS011;19623;52.482;9.762;2022-10-13T05:02:36;24.40;;;21.50;;
33254;SDS011;19623;52.482;9.762;2022-10-13T05:05:03;31.00;;;22.65;;
33254;SDS011;19623;52.482;9.762;2022-10-13T05:07:29;25.60;;;20.88;;
33254;SDS011;19623;52.482;9.762;2022-10-13T05:09:56;25.52;;;20.50;;
33254;SDS011;19623;52.482;9.762;2022-10-13T05:12:22;30.33;;;24.30;;
33254;SDS011;19623;52.482;9.762;2022-10-13T05:14:47;28.80;;;20.85;;
33254;SDS011;19623;52.482;9.762;2022-10-13T05:17:13;30.13;;;24.10;;
33254;SDS011;19623;52.482;9.762;2022-10-13T05:19:39;35.75;;;24.30;;
33254;SDS011;19623;52.482;9.762;2022-10-13T05:22:05;26.23;;;21.90;;
33254;SDS011;19623;52.482;9.762;2022-10-13T05:24:31;38.42;;;22.88;;
33254;SDS011;19623;52.482;9.762;2022-10-13T05:27:06;35.53;;;27.25;;
33254;SDS011;19623;52.482;9.762;2022-10-13T05:29:34;27.50;;;23.45;;
33254;SDS011;19623;52.482;9.762;2022-10-13T05:32:00;32.90;;;23.80;;
33254;SDS011;19623;52.482;9.762;2022-10-13T05:34:26;33.53;;;24.48;;
33254;SDS011;19623;52.482;9.762;2022-10-13T05:36:52;32.85;;;25.85;;
33254;SDS011;19623;52.482;9.762;2022-10-13T05:39:18;29.05;;;23.90;;
33254;SDS011;19623;52.482;9.762;2022-10-13T05:41:44;32.17;;;23.35;;
33254;SDS011;19623;52.482;9.762;2022-10-13T05:44:10;29.52;;;22.88;;
33254;SDS011;19623;52.482;9.762;2022-10-13T05:46:36;30.95;;;24.48;;
33254;SDS011;19623;52.482;9.762;2022-10-13T05:49:01;32.60;;;24.08;;
33254;SDS011;19623;52.482;9.762;2022-10-13T05:51:38;30.95;;;23.25;;
33254;SDS011;19623;52.482;9.762;2022-10-13T05:54:12;27.52;;;23.33;;
33254;SDS011;19623;52.482;9.762;2022-10-13T05:56:48;31.92;;;24.10;;
33254;SDS011;19623;52.482;9.762;2022-10-13T06:02:42;30.90;;;22.90;;
33254;SDS011;19623;52.482;9.762;2022-10-13T06:05:13;31.15;;;23.70;;
33254;SDS011;19623;52.482;9.762;2022-10-13T06:07:42;31.02;;;24.55;;
33254;SDS011;19623;52.482;9.762;2022-10-13T06:10:10;35.95;;;26.55;;
33254;SDS011;19623;52.482;9.762;2022-10-13T06:12:36;37.13;;;25.90;;
33254;SDS011;19623;52.482;9.762;2022-10-13T06:15:02;26.88;;;22.27;;
33254;SDS011;19623;52.482;9.762;2022-10-13T06:17:28;29.40;;;22.75;;
33254;SDS011;19623;52.482;9.762;2022-10-13T06:19:54;31.38;;;22.17;;
33254;SDS011;19623;52.482;9.762;2022-10-13T06:22:20;30.60;;;23.70;;
33254;SDS011;19623;52.482;9.762;2022-10-13T06:24:46;32.50;;;23.27;;
33254;SDS011;19623;52.482;9.762;2022-10-13T06:27:12;30.55;;;21.70;;
33254;SDS011;19623;52.482;9.762;2022-10-13T06:29:38;31.92;;;22.75;;
33254;SDS011;19623;52.482;9.762;2022-10-13T06:32:04;31.63;;;22.38;;
33254;SDS011;19623;52.482;9.762;2022-10-13T06:34:30;24.42;;;20.38;;
33254;SDS011;19623;52.482;9.762;2022-10-13T06:36:56;29.08;;;21.58;;
33254;SDS011;19623;52.482;9.762;2022-10-13T06:39:22;35.35;;;23.90;;
33254;SDS011;19623;52.482;9.762;2022-10-13T06:41:51;29.65;;;22.02;;
33254;SDS011;19623;52.482;9.762;2022-10-13T06:44:18;30.20;;;20.50;;
33254;SDS011;19623;52.482;9.762;2022-10-13T06:46:44;28.65;;;20.98;;
33254;SDS011;19623;52.482;9.762;2022-10-13T06:49:10;30.67;;;20.70;;
33254;SDS011;19623;52.482;9.762;2022-10-13T06:51:36;25.50;;;19.50;;
33254;SDS011;19623;52.482;9.762;2022-10-13T06:54:01;31.20;;;21.85;;
33254;SDS011;19623;52.482;9.762;2022-10-13T06:56:28;32.88;;;21.88;;
33254;SDS011;19623;52.482;9.762;2022-10-13T06:58:54;27.63;;;20.63;;
33254;SDS011;19623;52.482;9.762;2022-10-13T07:01:20;27.23;;;22.42;;
33254;SDS011;19623;52.482;9.762;2022-10-13T07:03:49;28.67;;;22.13;;
33254;SDS011;19623;52.482;9.762;2022-10-13T07:06:16;27.98;;;20.35;;
33254;SDS011;19623;52.482;9.762;2022-10-13T07:08:42;27.13;;;20.67;;
33254;SDS011;19623;52.482;9.762;2022-10-13T07:11:09;27.75;;;19.83;;
33254;SDS011;19623;52.482;9.762;2022-10-13T07:13:37;29.88;;;18.13;;
33254;SDS011;19623;52.482;9.762;2022-10-13T07:16:04;25.83;;;17.60;;
33254;SDS011;19623;52.482;9.762;2022-10-13T07:18:30;28.95;;;18.80;;
33254;SDS011;19623;52.482;9.762;2022-10-13T07:20:57;33.55;;;17.88;;
33254;SDS011;19623;52.482;9.762;2022-10-13T07:23:28;26.17;;;18.52;;
33254;SDS011;19623;52.482;9.762;2022-10-13T07:25:54;24.73;;;17.73;;
33254;SDS011;19623;52.482;9.762;2022-10-13T07:28:24;22.85;;;16.55;;
33254;SDS011;19623;52.482;9.762;2022-10-13T07:30:50;26.83;;;17.00;;
33254;SDS011;19623;52.482;9.762;2022-10-13T07:33:17;26.45;;;16.17;;
33254;SDS011;19623;52.482;9.762;2022-10-13T07:35:44;23.50;;;14.80;;
33254;SDS011;19623;52.482;9.762;2022-10-13T07:38:09;29.08;;;16.05;;
33254;SDS011;19623;52.482;9.762;2022-10-13T07:40:36;22.77;;;15.15;;
33254;SDS011;19623;52.482;9.762;2022-10-13T07:43:02;23.00;;;16.73;;
33254;SDS011;19623;52.482;9.762;2022-10-13T07:45:28;28.40;;;17.02;;
33254;SDS011;19623;52.482;9.762;2022-10-13T07:47:55;23.13;;;15.50;;
33254;SDS011;19623;52.482;9.762;2022-10-13T07:50:21;29.50;;;14.63;;
33254;SDS011;19623;52.482;9.762;2022-10-13T07:52:46;24.42;;;14.48;;
33254;SDS011;19623;52.482;9.762;2022-10-13T07:55:12;24.02;;;14.10;;
33254;SDS011;19623;52.482;9.762;2022-10-13T07:57:38;22.75;;;13.75;;
33254;SDS011;19623;52.482;9.762;2022-10-13T08:00:04;19.85;;;14.13;;
33254;SDS011;19623;52.482;9.762;2022-10-13T08:02:31;19.77;;;14.43;;
33254;SDS011;19623;52.482;9.762;2022-10-13T08:04:56;23.77;;;13.88;;
33254;SDS011;19623;52.482;9.762;2022-10-13T08:07:22;22.58;;;14.00;;
33254;SDS011;19623;52.482;9.762;2022-10-13T08:09:48;23.55;;;14.15;;
33254;SDS011;19623;52.482;9.762;2022-10-13T08:12:14;24.83;;;13.35;;
33254;SDS011;19623;52.482;9.762;2022-10-13T08:14:39;21.08;;;13.45;;
33254;SDS011;19623;52.482;9.762;2022-10-13T08:17:06;19.38;;;12.82;;
33254;SDS011;19623;52.482;9.762;2022-10-13T08:19:31;21.95;;;12.80;;
33254;SDS011;19623;52.482;9.762;2022-10-13T08:21:57;26.65;;;12.18;;
33254;SDS011;19623;52.482;9.762;2022-10-13T08:24:23;25.08;;;12.82;;
33254;SDS011;19623;52.482;9.762;2022-10-13T08:26:49;22.85;;;15.23;;
33254;SDS011;19623;52.482;9.762;2022-10-13T08:29:15;24.02;;;13.85;;
33254;SDS011;19623;52.482;9.762;2022-10-13T08:31:41;20.92;;;13.52;;
33254;SDS011;19623;52.482;9.762;2022-10-13T08:34:08;19.15;;;13.48;;
33254;SDS011;19623;52.482;9.762;2022-10-13T08:36:34;21.13;;;11.40;;
33254;SDS011;19623;52.482;9.762;2022-10-13T08:39:00;21.70;;;12.50;;
33254;SDS011;19623;52.482;9.762;2022-10-13T08:41:48;18.95;;;11.77;;
33254;SDS011;19623;52.482;9.762;2022-10-13T08:44:24;20.85;;;11.02;;
33254;SDS011;19623;52.482;9.762;2022-10-13T08:46:58;22.00;;;11.73;;
33254;SDS011;19623;52.482;9.762;2022-10-13T08:49:26;21.00;;;11.85;;
33254;SDS011;19623;52.482;9.762;2022-10-13T08:51:53;18.17;;;11.70;;
33254;SDS011;19623;52.482;9.762;2022-10-13T08:54:19;22.35;;;11.70;;
33254;SDS011;19623;52.482;9.762;2022-10-13T08:56:49;18.30;;;11.05;;
33254;SDS011;19623;52.482;9.762;2022-10-13T08:59:15;19.33;;;10.38;;
33254;SDS011;19623;52.482;9.762;2022-10-13T09:01:42;19.02;;;11.77;;
33254;SDS011;19623;52.482;9.762;2022-10-13T09:06:50;19.85;;;11.95;;
33254;SDS011;19623;52.482;9.762;2022-10-13T09:09:20;20.85;;;11.20;;
33254;SDS011;19623;52.482;9.762;2022-10-13T09:11:47;20.33;;;11.60;;
33254;SDS011;19623;52.482;9.762;2022-10-13T09:14:21;23.30;;;10.10;;
33254;SDS011;19623;52.482;9.762;2022-10-13T09:16:52;22.73;;;10.90;;
33254;SDS011;19623;52.482;9.762;2022-10-13T09:22:40;24.42;;;10.93;;
33254;SDS011;19623;52.482;9.762;2022-10-13T09:27:46;21.23;;;9.35;;
33254;SDS011;19623;52.482;9.762;2022-10-13T09:30:32;20.85;;;9.30;;
33254;SDS011;19623;52.482;9.762;2022-10-13T09:36:11;15.88;;;9.38;;
33254;SDS011;19623;52.482;9.762;2022-10-13T09:38:31;16.80;;;8.15;;
33254;SDS011;19623;52.482;9.762;2022-10-13T09:46:00;15.25;;;8.65;;
33254;SDS011;19623;52.482;9.762;2022-10-13T09:48:29;15.93;;;8.65;;
33254;SDS011;19623;52.482;9.762;2022-10-13T09:50:57;15.77;;;7.82;;
33254;SDS011;19623;52.482;9.762;2022-10-13T09:53:33;17.30;;;8.48;;
33254;SDS011;19623;52.482;9.762;2022-10-13T10:01:57;15.48;;;8.30;;
33254;SDS011;19623;52.482;9.762;2022-10-13T10:04:47;14.13;;;6.88;;
33254;SDS011;19623;52.482;9.762;2022-10-13T10:07:17;13.00;;;8.15;;
33254;SDS011;19623;52.482;9.762;2022-10-13T10:09:55;16.15;;;6.30;;
33254;SDS011;19623;52.482;9.762;2022-10-13T10:12:27;13.52;;;6.25;;
33254;SDS011;19623;52.482;9.762;2022-10-13T10:14:55;12.73;;;5.88;;
33254;SDS011;19623;52.482;9.762;2022-10-13T10:22:36;13.57;;;6.68;;
33254;SDS011;19623;52.482;9.762;2022-10-13T10:28:01;9.32;;;5.82;;
33254;SDS011;19623;52.482;9.762;2022-10-13T10:30:50;12.00;;;6.28;;
33254;SDS011;19623;52.482;9.762;2022-10-13T10:36:14;9.45;;;5.85;;
33254;SDS011;19623;52.482;9.762;2022-10-13T10:38:56;12.68;;;6.38;;
33254;SDS011;19623;52.482;9.762;2022-10-13T10:41:35;11.32;;;5.68;;
33254;SDS011;19623;52.482;9.762;2022-10-13T10:44:33;16.00;;;6.07;;
33254;SDS011;19623;52.482;9.762;2022-10-13T10:47:36;11.15;;;5.97;;
33254;SDS011;19623;52.482;9.762;2022-10-13T10:50:01;14.00;;;6.38;;
33254;SDS011;19623;52.482;9.762;2022-10-13T10:52:35;14.15;;;6.60;;
33254;SDS011;19623;52.482;9.762;2022-10-13T11:00:40;15.43;;;6.47;;
33254;SDS011;19623;52.482;9.762;2022-10-13T11:08:41;13.07;;;6.00;;
33254;SDS011;19623;52.482;9.762;2022-10-13T11:11:50;13.98;;;6.55;;
33254;SDS011;19623;52.482;9.762;2022-10-13T11:16:38;13.25;;;6.13;;
33254;SDS011;19623;52.482;9.762;2022-10-13T11:30:08;19.83;;;6.93;;
33254;SDS011;19623;52.482;9.762;2022-10-13T11:35:00;12.15;;;5.82;;
33254;SDS011;19623;52.482;9.762;2022-10-13T11:40:42;12.30;;;6.18;;
33254;SDS011;19623;52.482;9.762;2022-10-13T11:54:46;10.82;;;4.47;;
33254;SDS011;19623;52.482;9.762;2022-10-13T11:57:24;10.30;;;4.43;;
33254;SDS011;19623;52.482;9.762;2022-10-13T11:59:52;12.07;;;4.53;;
33254;SDS011;19623;52.482;9.762;2022-10-13T12:02:20;8.13;;;4.43;;
33254;SDS011;19623;52.482;9.762;2022-10-13T12:05:01;10.75;;;4.47;;
33254;SDS011;19623;52.482;9.762;2022-10-13T12:07:36;10.95;;;5.20;;
33254;SDS011;19623;52.482;9.762;2022-10-13T12:10:06;9.50;;;3.92;;
33254;SDS011;19623;52.482;9.762;2022-10-13T12:12:44;9.30;;;5.25;;
33254;SDS011;19623;52.482;9.762;2022-10-13T12:15:57;5.88;;;3.65;;
33254;SDS011;19623;52.482;9.762;2022-10-13T12:20:54;10.98;;;3.92;;
33254;SDS011;19623;52.482;9.762;2022-10-13T12:23:25;9.02;;;4.35;;
33254;SDS011;19623;52.482;9.762;2022-10-13T12:25:54;12.65;;;4.50;;
33254;SDS011;19623;52.482;9.762;2022-10-13T12:28:24;9.35;;;4.03;;
33254;SDS011;19623;52.482;9.762;2022-10-13T12:30:53;7.68;;;4.28;;
33254;SDS011;19623;52.482;9.762;2022-10-13T12:36:09;10.00;;;4.30;;
33254;SDS011;19623;52.482;9.762;2022-10-13T12:38:42;7.63;;;4.07;;
33254;SDS011;19623;52.482;9.762;2022-10-13T12:41:13;8.43;;;3.90;;
33254;SDS011;19623;52.482;9.762;2022-10-13T12:43:43;10.75;;;4.05;;
33254;SDS011;19623;52.482;9.762;2022-10-13T12:46:09;10.43;;;3.97;;
33254;SDS011;19623;52.482;9.762;2022-10-13T12:48:35;10.60;;;4.15;;
33254;SDS011;19623;52.482;9.762;2022-10-13T12:53:42;8.02;;;3.50;;
33254;SDS011;19623;52.482;9.762;2022-10-13T12:56:29;10.55;;;4.05;;
33254;SDS011;19623;52.482;9.762;2022-10-13T12:58:56;9.32;;;4.28;;
33254;SDS011;19623;52.482;9.762;2022-10-13T13:01:32;5.65;;;3.42;;
33254;SDS011;19623;52.482;9.762;2022-10-13T13:04:15;8.73;;;4.38;;
33254;SDS011;19623;52.482;9.762;2022-10-13T13:07:05;11.75;;;4.15;;
33254;SDS011;19623;52.482;9.762;2022-10-13T13:12:32;7.35;;;3.88;;
33254;SDS011;19623;52.482;9.762;2022-10-13T13:20:50;8.57;;;4.40;;
33254;SDS011;19623;52.482;9.762;2022-10-13T13:23:16;8.00;;;3.83;;
33254;SDS011;19623;52.482;9.762;2022-10-13T13:25:46;8.90;;;3.80;;
33254;SDS011;19623;52.482;9.762;2022-10-13T13:28:27;8.88;;;3.97;;
33254;SDS011;19623;52.482;9.762;2022-10-13T13:30:54;10.38;;;3.70;;
33254;SDS011;19623;52.482;9.762;2022-10-13T13:33:20;11.52;;;3.83;;
33254;SDS011;19623;52.482;9.762;2022-10-13T13:35:45;9.93;;;3.67;;
33254;SDS011;19623;52.482;9.762;2022-10-13T13:38:13;9.27;;;4.18;;
33254;SDS011;19623;52.482;9.762;2022-10-13T13:40:38;9.65;;;3.33;;
33254;SDS011;19623;52.482;9.762;2022-10-13T13:43:04;10.23;;;4.00;;
33254;SDS011;19623;52.482;9.762;2022-10-13T13:45:30;9.20;;;3.15;;
33254;SDS011;19623;52.482;9.762;2022-10-13T13:47:58;8.18;;;3.53;;
33254;SDS011;19623;52.482;9.762;2022-10-13T13:50:25;6.05;;;3.55;;
33254;SDS011;19623;52.482;9.762;2022-10-13T13:52:59;14.65;;;4.28;;
33254;SDS011;19623;52.482;9.762;2022-10-13T13:55:25;10.93;;;3.88;;
33254;SDS011;19623;52.482;9.762;2022-10-13T13:57:53;11.18;;;4.07;;
33254;SDS011;19623;52.482;9.762;2022-10-13T14:00:19;7.63;;;4.03;;
33254;SDS011;19623;52.482;9.762;2022-10-13T14:02:45;7.30;;;3.80;;
33254;SDS011;19623;52.482;9.762;2022-10-13T14:05:11;8.48;;;3.75;;
33254;SDS011;19623;52.482;9.762;2022-10-13T14:07:37;7.88;;;3.30;;
33254;SDS011;19623;52.482;9.762;2022-10-13T14:10:04;11.55;;;3.45;;
33254;SDS011;19623;52.482;9.762;2022-10-13T14:12:31;10.77;;;4.50;;
33254;SDS011;19623;52.482;9.762;2022-10-13T14:15:00;7.35;;;4.30;;
33254;SDS011;19623;52.482;9.762;2022-10-13T14:17:26;11.48;;;4.32;;
33254;SDS011;19623;52.482;9.762;2022-10-13T14:19:52;9.23;;;4.50;;
33254;SDS011;19623;52.482;9.762;2022-10-13T14:22:18;6.18;;;4.10;;
33254;SDS011;19623;52.482;9.762;2022-10-13T14:24:44;7.10;;;4.45;;
33254;SDS011;19623;52.482;9.762;2022-10-13T14:27:10;14.43;;;5.05;;
33254;SDS011;19623;52.482;9.762;2022-10-13T14:29:36;10.40;;;4.55;;
33254;SDS011;19623;52.482;9.762;2022-10-13T14:32:01;9.43;;;3.90;;
33254;SDS011;19623;52.482;9.762;2022-10-13T14:34:28;7.38;;;4.38;;
33254;SDS011;19623;52.482;9.762;2022-10-13T14:36:54;8.05;;;4.88;;
33254;SDS011;19623;52.482;9.762;2022-10-13T14:39:20;10.05;;;4.65;;
33254;SDS011;19623;52.482;9.762;2022-10-13T14:41:46;12.40;;;5.05;;
33254;SDS011;19623;52.482;9.762;2022-10-13T14:44:12;9.30;;;4.70;;
33254;SDS011;19623;52.482;9.762;2022-10-13T14:46:38;5.72;;;3.60;;
33254;SDS011;19623;52.482;9.762;2022-10-13T14:49:04;8.00;;;4.70;;
33254;SDS011;19623;52.482;9.762;2022-10-13T14:51:30;11.27;;;5.43;;
33254;SDS011;19623;52.482;9.762;2022-10-13T14:53:56;12.15;;;5.18;;
33254;SDS011;19623;52.482;9.762;2022-10-13T14:56:24;10.32;;;4.03;;
33254;SDS011;19623;52.482;9.762;2022-10-13T14:58:52;9.20;;;4.80;;
33254;SDS011;19623;52.482;9.762;2022-10-13T15:01:20;9.45;;;4.85;;
33254;SDS011;19623;52.482;9.762;2022-10-13T15:03:46;16.17;;;5.22;;
33254;SDS011;19623;52.482;9.762;2022-10-13T15:06:13;8.40;;;4.40;;
33254;SDS011;19623;52.482;9.762;2022-10-13T15:08:40;10.30;;;5.68;;
33254;SDS011;19623;52.482;9.762;2022-10-13T15:11:06;10.90;;;4.70;;
33254;SDS011;19623;52.482;9.762;2022-10-13T15:13:32;13.40;;;5.15;;
33254;SDS011;19623;52.482;9.762;2022-10-13T15:15:58;7.10;;;4.28;;
33254;SDS011;19623;52.482;9.762;2022-10-13T15:18:25;9.10;;;5.05;;
33254;SDS011;19623;52.482;9.762;2022-10-13T15:20:52;12.88;;;5.20;;
33254;SDS011;19623;52.482;9.762;2022-10-13T15:23:18;13.70;;;5.47;;
33254;SDS011;19623;52.482;9.762;2022-10-13T15:25:55;12.75;;;5.60;;
33254;SDS011;19623;52.482;9.762;2022-10-13T15:28:22;8.88;;;6.05;;
33254;SDS011;19623;52.482;9.762;2022-10-13T15:31:11;8.27;;;5.15;;
33254;SDS011;19623;52.482;9.762;2022-10-13T15:33:42;8.88;;;5.22;;
33254;SDS011;19623;52.482;9.762;2022-10-13T15:36:09;8.48;;;5.13;;
33254;SDS011;19623;52.482;9.762;2022-10-13T15:38:35;8.07;;;4.68;;
33254;SDS011;19623;52.482;9.762;2022-10-13T15:41:01;13.82;;;5.55;;
33254;SDS011;19623;52.482;9.762;2022-10-13T15:43:28;11.88;;;6.20;;
33254;SDS011;19623;52.482;9.762;2022-10-13T15:45:56;12.57;;;6.00;;
33254;SDS011;19623;52.482;9.762;2022-10-13T15:48:25;11.10;;;3.80;;
33254;SDS011;19623;52.482;9.762;2022-10-13T15:50:51;11.15;;;5.35;;
33254;SDS011;19623;52.482;9.762;2022-10-13T15:53:17;10.60;;;5.28;;
33254;SDS011;19623;52.482;9.762;2022-10-13T15:55:44;10.43;;;5.10;;
33254;SDS011;19623;52.482;9.762;2022-10-13T15:58:10;8.15;;;5.75;;
33254;SDS011;19623;52.482;9.762;2022-10-13T16:00:37;10.40;;;6.18;;
33254;SDS011;19623;52.482;9.762;2022-10-13T16:03:03;9.07;;;5.20;;
33254;SDS011;19623;52.482;9.762;2022-10-13T16:05:29;6.65;;;5.63;;
33254;SDS011;19623;52.482;9.762;2022-10-13T16:07:55;12.10;;;6.38;;
33254;SDS011;19623;52.482;9.762;2022-10-13T16:10:21;10.40;;;5.72;;
33254;SDS011;19623;52.482;9.762;2022-10-13T16:12:47;13.48;;;6.35;;
33254;SDS011;19623;52.482;9.762;2022-10-13T16:15:13;9.75;;;6.15;;
33254;SDS011;19623;52.482;9.762;2022-10-13T16:17:40;7.97;;;6.10;;
33254;SDS011;19623;52.482;9.762;2022-10-13T16:20:06;8.77;;;6.47;;
33254;SDS011;19623;52.482;9.762;2022-10-13T16:22:32;14.40;;;6.75;;
33254;SDS011;19623;52.482;9.762;2022-10-13T16:24:58;8.25;;;7.43;;
33254;SDS011;19623;52.482;9.762;2022-10-13T16:27:24;11.38;;;7.22;;
33254;SDS011;19623;52.482;9.762;2022-10-13T16:29:50;14.55;;;6.60;;
33254;SDS011;19623;52.482;9.762;2022-10-13T16:32:15;18.27;;;8.48;;